sensor_id;sensor_type;location;lat;lon;timestamp;P1;durP1;ratioP1;P2;durP2;ratioP2
63050;SDS011;49136;47.416;19.402;2022-08-25T00:00:42;11.75;;;6.47;;
63050;SDS011;49136;47.416;19.402;2022-08-25T00:03:08;12.10;;;6.82;;
63050;SDS011;49136;47.416;19.402;2022-08-25T00:05:35;15.13;;;6.28;;
63050;SDS011;49136;47.416;19.402;2022-08-25T00:08:01;14.95;;;6.20;;
63050;SDS011;49136;47.416;19.402;2022-08-25T00:10:27;11.23;;;6.68;;
63050;SDS011;49136;47.416;19.402;2022-08-25T00:12:53;12.93;;;6.47;;
63050;SDS011;49136;47.416;19.402;2022-08-25T00:15:18;14.15;;;6.38;;
63050;SDS011;49136;47.416;19.402;2022-08-25T00:17:46;17.58;;;6.22;;
63050;SDS011;49136;47.416;19.402;2022-08-25T00:20:13;12.50;;;5.53;;
63050;SDS011;49136;47.416;19.402;2022-08-25T00:22:39;14.75;;;6.22;;
63050;SDS011;49136;47.416;19.402;2022-08-25T00:25:05;12.38;;;6.10;;
63050;SDS011;49136;47.416;19.402;2022-08-25T00:27:31;11.23;;;5.90;;
63050;SDS011;49136;47.416;19.402;2022-08-25T00:29:57;10.70;;;6.25;;
63050;SDS011;49136;47.416;19.402;2022-08-25T00:32:22;14.82;;;6.65;;
63050;SDS011;49136;47.416;19.402;2022-08-25T00:34:49;9.35;;;5.28;;
63050;SDS011;49136;47.416;19.402;2022-08-25T00:37:14;12.98;;;6.07;;
63050;SDS011;49136;47.416;19.402;2022-08-25T00:39:40;11.30;;;6.03;;
63050;SDS011;49136;47.416;19.402;2022-08-25T00:42:06;14.45;;;6.03;;
63050;SDS011;49136;47.416;19.402;2022-08-25T00:44:33;11.82;;;5.72;;
63050;SDS011;49136;47.416;19.402;2022-08-25T00:47:00;12.38;;;5.88;;
63050;SDS011;49136;47.416;19.402;2022-08-25T00:49:39;14.00;;;5.93;;
63050;SDS011;49136;47.416;19.402;2022-08-25T00:52:15;15.93;;;6.90;;
63050;SDS011;49136;47.416;19.402;2022-08-25T00:54:45;14.35;;;5.97;;
63050;SDS011;49136;47.416;19.402;2022-08-25T00:57:16;18.08;;;6.20;;
63050;SDS011;49136;47.416;19.402;2022-08-25T00:59:43;15.73;;;6.07;;
63050;SDS011;49136;47.416;19.402;2022-08-25T01:02:10;12.95;;;5.88;;
63050;SDS011;49136;47.416;19.402;2022-08-25T01:04:38;12.15;;;6.38;;
63050;SDS011;49136;47.416;19.402;2022-08-25T01:07:04;22.10;;;6.05;;
63050;SDS011;49136;47.416;19.402;2022-08-25T01:09:30;15.05;;;6.90;;
63050;SDS011;49136;47.416;19.402;2022-08-25T01:11:59;11.25;;;5.95;;
63050;SDS011;49136;47.416;19.402;2022-08-25T01:14:25;13.45;;;6.32;;
63050;SDS011;49136;47.416;19.402;2022-08-25T01:16:52;14.38;;;6.55;;
63050;SDS011;49136;47.416;19.402;2022-08-25T01:19:18;9.73;;;5.53;;
63050;SDS011;49136;47.416;19.402;2022-08-25T01:21:45;12.25;;;6.70;;
63050;SDS011;49136;47.416;19.402;2022-08-25T01:24:28;20.95;;;6.43;;
63050;SDS011;49136;47.416;19.402;2022-08-25T01:26:59;8.85;;;5.75;;
63050;SDS011;49136;47.416;19.402;2022-08-25T01:29:25;14.85;;;5.78;;
63050;SDS011;49136;47.416;19.402;2022-08-25T01:31:53;9.95;;;5.47;;
63050;SDS011;49136;47.416;19.402;2022-08-25T01:34:22;16.52;;;6.68;;
63050;SDS011;49136;47.416;19.402;2022-08-25T01:36:52;12.60;;;6.38;;
63050;SDS011;49136;47.416;19.402;2022-08-25T01:39:18;11.27;;;5.47;;
63050;SDS011;49136;47.416;19.402;2022-08-25T01:41:57;17.17;;;6.60;;
63050;SDS011;49136;47.416;19.402;2022-08-25T01:44:44;10.75;;;6.30;;
63050;SDS011;49136;47.416;19.402;2022-08-25T01:47:11;8.27;;;5.43;;
63050;SDS011;49136;47.416;19.402;2022-08-25T01:49:37;12.25;;;5.85;;
63050;SDS011;49136;47.416;19.402;2022-08-25T01:54:47;14.05;;;5.70;;
63050;SDS011;49136;47.416;19.402;2022-08-25T01:57:12;14.32;;;6.28;;
63050;SDS011;49136;47.416;19.402;2022-08-25T01:59:38;8.43;;;5.72;;
63050;SDS011;49136;47.416;19.402;2022-08-25T02:02:04;11.18;;;6.22;;
63050;SDS011;49136;47.416;19.402;2022-08-25T02:04:29;13.35;;;6.20;;
63050;SDS011;49136;47.416;19.402;2022-08-25T02:06:57;11.65;;;6.22;;
63050;SDS011;49136;47.416;19.402;2022-08-25T02:09:25;16.17;;;6.32;;
63050;SDS011;49136;47.416;19.402;2022-08-25T02:11:50;12.25;;;5.90;;
63050;SDS011;49136;47.416;19.402;2022-08-25T02:14:16;11.57;;;6.07;;
63050;SDS011;49136;47.416;19.402;2022-08-25T02:16:45;18.40;;;5.95;;
63050;SDS011;49136;47.416;19.402;2022-08-25T02:19:13;11.85;;;5.40;;
63050;SDS011;49136;47.416;19.402;2022-08-25T02:21:40;8.88;;;5.25;;
63050;SDS011;49136;47.416;19.402;2022-08-25T02:24:06;11.23;;;5.93;;
63050;SDS011;49136;47.416;19.402;2022-08-25T02:26:32;14.63;;;5.85;;
63050;SDS011;49136;47.416;19.402;2022-08-25T02:28:57;13.77;;;6.22;;
63050;SDS011;49136;47.416;19.402;2022-08-25T02:31:23;13.25;;;5.53;;
63050;SDS011;49136;47.416;19.402;2022-08-25T02:33:50;13.82;;;6.38;;
63050;SDS011;49136;47.416;19.402;2022-08-25T02:36:16;10.23;;;5.20;;
63050;SDS011;49136;47.416;19.402;2022-08-25T02:38:43;18.48;;;6.38;;
63050;SDS011;49136;47.416;19.402;2022-08-25T02:41:10;19.77;;;6.22;;
63050;SDS011;49136;47.416;19.402;2022-08-25T02:43:42;15.27;;;6.68;;
63050;SDS011;49136;47.416;19.402;2022-08-25T02:46:08;11.82;;;5.93;;
63050;SDS011;49136;47.416;19.402;2022-08-25T02:48:35;12.30;;;5.65;;
63050;SDS011;49136;47.416;19.402;2022-08-25T02:51:03;11.27;;;6.28;;
63050;SDS011;49136;47.416;19.402;2022-08-25T02:53:33;12.68;;;6.22;;
63050;SDS011;49136;47.416;19.402;2022-08-25T02:55:59;12.98;;;6.68;;
63050;SDS011;49136;47.416;19.402;2022-08-25T02:58:25;16.75;;;5.97;;
63050;SDS011;49136;47.416;19.402;2022-08-25T03:00:50;12.75;;;6.88;;
63050;SDS011;49136;47.416;19.402;2022-08-25T03:03:17;15.10;;;7.32;;
63050;SDS011;49136;47.416;19.402;2022-08-25T03:05:43;15.00;;;6.55;;
63050;SDS011;49136;47.416;19.402;2022-08-25T03:08:10;13.63;;;6.82;;
63050;SDS011;49136;47.416;19.402;2022-08-25T03:10:36;12.90;;;6.05;;
63050;SDS011;49136;47.416;19.402;2022-08-25T03:13:02;12.20;;;5.88;;
63050;SDS011;49136;47.416;19.402;2022-08-25T03:15:27;11.73;;;6.30;;
63050;SDS011;49136;47.416;19.402;2022-08-25T03:17:53;15.52;;;6.63;;
63050;SDS011;49136;47.416;19.402;2022-08-25T03:20:20;12.93;;;7.03;;
63050;SDS011;49136;47.416;19.402;2022-08-25T03:22:49;17.98;;;7.25;;
63050;SDS011;49136;47.416;19.402;2022-08-25T03:25:15;10.35;;;5.97;;
63050;SDS011;49136;47.416;19.402;2022-08-25T03:28:00;13.00;;;6.15;;
63050;SDS011;49136;47.416;19.402;2022-08-25T03:30:27;10.18;;;5.97;;
63050;SDS011;49136;47.416;19.402;2022-08-25T03:32:53;14.45;;;7.32;;
63050;SDS011;49136;47.416;19.402;2022-08-25T03:35:19;10.02;;;6.30;;
63050;SDS011;49136;47.416;19.402;2022-08-25T03:37:44;14.02;;;7.43;;
63050;SDS011;49136;47.416;19.402;2022-08-25T03:40:10;15.02;;;7.07;;
63050;SDS011;49136;47.416;19.402;2022-08-25T03:42:42;11.75;;;5.63;;
63050;SDS011;49136;47.416;19.402;2022-08-25T03:45:09;14.30;;;6.07;;
63050;SDS011;49136;47.416;19.402;2022-08-25T03:47:38;13.52;;;6.93;;
63050;SDS011;49136;47.416;19.402;2022-08-25T03:50:05;8.65;;;5.50;;
63050;SDS011;49136;47.416;19.402;2022-08-25T03:52:33;17.80;;;6.68;;
63050;SDS011;49136;47.416;19.402;2022-08-25T03:54:59;12.35;;;6.65;;
63050;SDS011;49136;47.416;19.402;2022-08-25T03:57:25;26.23;;;6.15;;
63050;SDS011;49136;47.416;19.402;2022-08-25T03:59:50;16.83;;;7.03;;
63050;SDS011;49136;47.416;19.402;2022-08-25T04:02:16;13.10;;;5.38;;
63050;SDS011;49136;47.416;19.402;2022-08-25T04:04:42;11.80;;;6.18;;
63050;SDS011;49136;47.416;19.402;2022-08-25T04:07:07;11.18;;;5.88;;
63050;SDS011;49136;47.416;19.402;2022-08-25T04:09:33;12.70;;;6.78;;
63050;SDS011;49136;47.416;19.402;2022-08-25T04:11:58;11.68;;;6.35;;
63050;SDS011;49136;47.416;19.402;2022-08-25T04:14:23;16.58;;;7.20;;
63050;SDS011;49136;47.416;19.402;2022-08-25T04:16:49;15.38;;;6.07;;
63050;SDS011;49136;47.416;19.402;2022-08-25T04:19:16;17.40;;;6.10;;
63050;SDS011;49136;47.416;19.402;2022-08-25T04:21:42;14.75;;;7.43;;
63050;SDS011;49136;47.416;19.402;2022-08-25T04:24:08;14.43;;;7.90;;
63050;SDS011;49136;47.416;19.402;2022-08-25T04:26:37;14.73;;;7.57;;
63050;SDS011;49136;47.416;19.402;2022-08-25T04:29:08;13.07;;;7.43;;
63050;SDS011;49136;47.416;19.402;2022-08-25T04:31:35;12.35;;;7.32;;
63050;SDS011;49136;47.416;19.402;2022-08-25T04:34:04;13.20;;;6.68;;
63050;SDS011;49136;47.416;19.402;2022-08-25T04:36:30;17.48;;;7.05;;
63050;SDS011;49136;47.416;19.402;2022-08-25T04:38:56;14.82;;;6.88;;
63050;SDS011;49136;47.416;19.402;2022-08-25T04:41:22;15.13;;;6.72;;
63050;SDS011;49136;47.416;19.402;2022-08-25T04:43:49;16.95;;;8.00;;
63050;SDS011;49136;47.416;19.402;2022-08-25T04:48:46;15.43;;;7.60;;
63050;SDS011;49136;47.416;19.402;2022-08-25T04:51:13;21.08;;;8.27;;
63050;SDS011;49136;47.416;19.402;2022-08-25T04:53:41;11.40;;;6.13;;
63050;SDS011;49136;47.416;19.402;2022-08-25T04:56:08;17.85;;;7.75;;
63050;SDS011;49136;47.416;19.402;2022-08-25T04:58:35;16.00;;;8.10;;
63050;SDS011;49136;47.416;19.402;2022-08-25T05:01:02;14.15;;;6.22;;
63050;SDS011;49136;47.416;19.402;2022-08-25T05:03:32;11.67;;;7.13;;
63050;SDS011;49136;47.416;19.402;2022-08-25T05:05:58;18.15;;;7.38;;
63050;SDS011;49136;47.416;19.402;2022-08-25T05:08:23;16.13;;;7.10;;
63050;SDS011;49136;47.416;19.402;2022-08-25T05:10:49;13.13;;;7.40;;
63050;SDS011;49136;47.416;19.402;2022-08-25T05:13:15;19.63;;;6.70;;
63050;SDS011;49136;47.416;19.402;2022-08-25T05:15:40;14.02;;;6.95;;
63050;SDS011;49136;47.416;19.402;2022-08-25T05:18:18;13.90;;;7.53;;
63050;SDS011;49136;47.416;19.402;2022-08-25T05:20:45;10.97;;;7.23;;
63050;SDS011;49136;47.416;19.402;2022-08-25T05:23:10;9.75;;;5.95;;
63050;SDS011;49136;47.416;19.402;2022-08-25T05:25:36;13.25;;;6.47;;
63050;SDS011;49136;47.416;19.402;2022-08-25T05:28:01;19.05;;;7.07;;
63050;SDS011;49136;47.416;19.402;2022-08-25T05:30:27;17.15;;;7.20;;
63050;SDS011;49136;47.416;19.402;2022-08-25T05:32:53;15.77;;;7.07;;
63050;SDS011;49136;47.416;19.402;2022-08-25T05:35:18;22.55;;;6.95;;
63050;SDS011;49136;47.416;19.402;2022-08-25T05:37:44;15.25;;;6.40;;
63050;SDS011;49136;47.416;19.402;2022-08-25T05:40:10;13.85;;;6.22;;
63050;SDS011;49136;47.416;19.402;2022-08-25T05:42:36;9.77;;;5.88;;
63050;SDS011;49136;47.416;19.402;2022-08-25T05:45:05;21.92;;;6.43;;
63050;SDS011;49136;47.416;19.402;2022-08-25T05:47:31;9.35;;;5.55;;
63050;SDS011;49136;47.416;19.402;2022-08-25T05:49:57;15.10;;;6.32;;
63050;SDS011;49136;47.416;19.402;2022-08-25T05:52:23;14.10;;;6.03;;
63050;SDS011;49136;47.416;19.402;2022-08-25T05:54:50;11.18;;;6.15;;
63050;SDS011;49136;47.416;19.402;2022-08-25T05:57:15;13.07;;;4.80;;
63050;SDS011;49136;47.416;19.402;2022-08-25T05:59:41;10.50;;;6.05;;
63050;SDS011;49136;47.416;19.402;2022-08-25T06:02:06;9.52;;;4.75;;
63050;SDS011;49136;47.416;19.402;2022-08-25T06:04:50;9.60;;;4.47;;
63050;SDS011;49136;47.416;19.402;2022-08-25T06:07:16;9.32;;;4.63;;
63050;SDS011;49136;47.416;19.402;2022-08-25T06:09:41;17.95;;;4.75;;
63050;SDS011;49136;47.416;19.402;2022-08-25T06:12:09;20.80;;;5.53;;
63050;SDS011;49136;47.416;19.402;2022-08-25T06:14:35;11.73;;;4.55;;
63050;SDS011;49136;47.416;19.402;2022-08-25T06:17:00;6.57;;;4.38;;
63050;SDS011;49136;47.416;19.402;2022-08-25T06:19:26;7.55;;;4.82;;
63050;SDS011;49136;47.416;19.402;2022-08-25T06:21:52;6.95;;;4.38;;
63050;SDS011;49136;47.416;19.402;2022-08-25T06:24:19;8.30;;;4.22;;
63050;SDS011;49136;47.416;19.402;2022-08-25T06:26:44;9.35;;;4.20;;
63050;SDS011;49136;47.416;19.402;2022-08-25T06:29:10;6.78;;;4.10;;
63050;SDS011;49136;47.416;19.402;2022-08-25T06:31:38;16.40;;;4.43;;
63050;SDS011;49136;47.416;19.402;2022-08-25T06:34:03;9.98;;;5.30;;
63050;SDS011;49136;47.416;19.402;2022-08-25T06:36:30;8.07;;;4.65;;
63050;SDS011;49136;47.416;19.402;2022-08-25T06:38:55;11.73;;;4.03;;
63050;SDS011;49136;47.416;19.402;2022-08-25T06:41:21;7.55;;;4.40;;
63050;SDS011;49136;47.416;19.402;2022-08-25T06:43:46;11.13;;;3.53;;
63050;SDS011;49136;47.416;19.402;2022-08-25T06:46:13;9.00;;;3.40;;
63050;SDS011;49136;47.416;19.402;2022-08-25T06:48:40;6.78;;;3.65;;
63050;SDS011;49136;47.416;19.402;2022-08-25T06:51:13;6.53;;;3.30;;
63050;SDS011;49136;47.416;19.402;2022-08-25T06:53:43;7.45;;;3.45;;
63050;SDS011;49136;47.416;19.402;2022-08-25T06:56:10;7.40;;;3.20;;
63050;SDS011;49136;47.416;19.402;2022-08-25T06:58:36;6.43;;;3.33;;
63050;SDS011;49136;47.416;19.402;2022-08-25T07:01:07;5.72;;;3.20;;
63050;SDS011;49136;47.416;19.402;2022-08-25T07:03:34;11.70;;;3.42;;
63050;SDS011;49136;47.416;19.402;2022-08-25T07:06:00;11.45;;;3.95;;
63050;SDS011;49136;47.416;19.402;2022-08-25T07:08:25;6.63;;;2.90;;
63050;SDS011;49136;47.416;19.402;2022-08-25T07:10:51;4.88;;;3.40;;
63050;SDS011;49136;47.416;19.402;2022-08-25T07:13:16;7.90;;;3.17;;
63050;SDS011;49136;47.416;19.402;2022-08-25T07:15:43;7.95;;;3.15;;
63050;SDS011;49136;47.416;19.402;2022-08-25T07:18:09;8.00;;;3.15;;
63050;SDS011;49136;47.416;19.402;2022-08-25T07:20:37;9.90;;;3.92;;
63050;SDS011;49136;47.416;19.402;2022-08-25T07:23:03;9.70;;;3.90;;
63050;SDS011;49136;47.416;19.402;2022-08-25T07:25:29;6.07;;;2.72;;
63050;SDS011;49136;47.416;19.402;2022-08-25T07:27:59;6.13;;;2.95;;
63050;SDS011;49136;47.416;19.402;2022-08-25T07:30:25;8.68;;;3.00;;
63050;SDS011;49136;47.416;19.402;2022-08-25T07:32:51;5.97;;;3.10;;
63050;SDS011;49136;47.416;19.402;2022-08-25T07:35:17;9.20;;;3.05;;
63050;SDS011;49136;47.416;19.402;2022-08-25T07:37:45;11.15;;;3.17;;
63050;SDS011;49136;47.416;19.402;2022-08-25T07:40:17;5.40;;;2.60;;
63050;SDS011;49136;47.416;19.402;2022-08-25T07:42:49;3.50;;;2.30;;
63050;SDS011;49136;47.416;19.402;2022-08-25T07:45:15;5.72;;;2.38;;
63050;SDS011;49136;47.416;19.402;2022-08-25T07:47:41;2.72;;;1.80;;
63050;SDS011;49136;47.416;19.402;2022-08-25T07:50:08;6.60;;;2.63;;
63050;SDS011;49136;47.416;19.402;2022-08-25T07:52:36;5.30;;;2.72;;
63050;SDS011;49136;47.416;19.402;2022-08-25T07:55:01;3.22;;;2.25;;
63050;SDS011;49136;47.416;19.402;2022-08-25T07:57:27;5.80;;;2.20;;
63050;SDS011;49136;47.416;19.402;2022-08-25T07:59:53;3.25;;;2.03;;
63050;SDS011;49136;47.416;19.402;2022-08-25T08:02:20;4.55;;;2.13;;
63050;SDS011;49136;47.416;19.402;2022-08-25T08:04:48;3.50;;;2.00;;
63050;SDS011;49136;47.416;19.402;2022-08-25T08:07:19;5.57;;;2.53;;
63050;SDS011;49136;47.416;19.402;2022-08-25T08:09:50;10.25;;;2.95;;
63050;SDS011;49136;47.416;19.402;2022-08-25T08:12:15;5.97;;;2.60;;
63050;SDS011;49136;47.416;19.402;2022-08-25T08:14:44;10.35;;;2.47;;
63050;SDS011;49136;47.416;19.402;2022-08-25T08:17:10;3.65;;;2.25;;
63050;SDS011;49136;47.416;19.402;2022-08-25T08:19:40;5.43;;;3.00;;
63050;SDS011;49136;47.416;19.402;2022-08-25T08:22:11;5.15;;;2.13;;
63050;SDS011;49136;47.416;19.402;2022-08-25T08:24:39;2.90;;;1.95;;
63050;SDS011;49136;47.416;19.402;2022-08-25T08:27:08;4.70;;;2.40;;
63050;SDS011;49136;47.416;19.402;2022-08-25T08:29:34;3.70;;;2.40;;
63050;SDS011;49136;47.416;19.402;2022-08-25T08:32:04;4.00;;;2.47;;
63050;SDS011;49136;47.416;19.402;2022-08-25T08:34:30;5.77;;;2.60;;
63050;SDS011;49136;47.416;19.402;2022-08-25T08:36:56;4.82;;;2.47;;
63050;SDS011;49136;47.416;19.402;2022-08-25T08:39:23;3.28;;;2.10;;
63050;SDS011;49136;47.416;19.402;2022-08-25T08:49:56;4.10;;;2.35;;
63050;SDS011;49136;47.416;19.402;2022-08-25T08:52:51;4.90;;;2.20;;
63050;SDS011;49136;47.416;19.402;2022-08-25T08:58:03;4.85;;;2.50;;
63050;SDS011;49136;47.416;19.402;2022-08-25T09:00:36;4.57;;;2.63;;
63050;SDS011;49136;47.416;19.402;2022-08-25T09:03:07;4.22;;;2.45;;
63050;SDS011;49136;47.416;19.402;2022-08-25T09:05:43;4.25;;;2.05;;
63050;SDS011;49136;47.416;19.402;2022-08-25T09:08:11;4.45;;;2.30;;
63050;SDS011;49136;47.416;19.402;2022-08-25T09:11:02;4.18;;;2.35;;
63050;SDS011;49136;47.416;19.402;2022-08-25T09:16:08;4.85;;;2.80;;
63050;SDS011;49136;47.416;19.402;2022-08-25T09:19:04;5.85;;;2.50;;
63050;SDS011;49136;47.416;19.402;2022-08-25T09:24:04;9.70;;;2.70;;
63050;SDS011;49136;47.416;19.402;2022-08-25T09:30:17;4.57;;;2.30;;
63050;SDS011;49136;47.416;19.402;2022-08-25T09:32:45;3.75;;;2.38;;
63050;SDS011;49136;47.416;19.402;2022-08-25T09:35:17;6.22;;;2.42;;
63050;SDS011;49136;47.416;19.402;2022-08-25T09:37:54;4.80;;;2.38;;
63050;SDS011;49136;47.416;19.402;2022-08-25T09:40:22;3.03;;;2.15;;
63050;SDS011;49136;47.416;19.402;2022-08-25T09:42:53;2.63;;;2.30;;
63050;SDS011;49136;47.416;19.402;2022-08-25T09:45:40;3.03;;;1.88;;
63050;SDS011;49136;47.416;19.402;2022-08-25T09:48:18;4.30;;;1.90;;
63050;SDS011;49136;47.416;19.402;2022-08-25T09:50:47;4.82;;;2.60;;
63050;SDS011;49136;47.416;19.402;2022-08-25T09:53:15;3.67;;;2.50;;
63050;SDS011;49136;47.416;19.402;2022-08-25T09:55:42;3.67;;;2.08;;
63050;SDS011;49136;47.416;19.402;2022-08-25T09:58:28;3.75;;;2.28;;
63050;SDS011;49136;47.416;19.402;2022-08-25T10:03:28;7.28;;;2.40;;
63050;SDS011;49136;47.416;19.402;2022-08-25T10:08:26;6.28;;;2.60;;
63050;SDS011;49136;47.416;19.402;2022-08-25T10:10:56;7.15;;;2.50;;
63050;SDS011;49136;47.416;19.402;2022-08-25T10:13:34;6.32;;;2.80;;
63050;SDS011;49136;47.416;19.402;2022-08-25T10:16:04;5.15;;;2.38;;
63050;SDS011;49136;47.416;19.402;2022-08-25T10:18:32;6.68;;;2.35;;
63050;SDS011;49136;47.416;19.402;2022-08-25T10:21:10;5.55;;;2.50;;
63050;SDS011;49136;47.416;19.402;2022-08-25T10:23:47;3.33;;;2.30;;
63050;SDS011;49136;47.416;19.402;2022-08-25T10:29:08;6.28;;;2.63;;
63050;SDS011;49136;47.416;19.402;2022-08-25T10:31:58;6.65;;;2.80;;
63050;SDS011;49136;47.416;19.402;2022-08-25T10:34:42;11.77;;;3.00;;
63050;SDS011;49136;47.416;19.402;2022-08-25T10:40:02;4.45;;;2.75;;
63050;SDS011;49136;47.416;19.402;2022-08-25T10:45:44;3.08;;;2.15;;
63050;SDS011;49136;47.416;19.402;2022-08-25T10:48:24;7.57;;;2.72;;
63050;SDS011;49136;47.416;19.402;2022-08-25T11:07:06;5.70;;;2.60;;
63050;SDS011;49136;47.416;19.402;2022-08-25T11:09:37;3.75;;;2.47;;
63050;SDS011;49136;47.416;19.402;2022-08-25T11:12:11;4.22;;;2.55;;
63050;SDS011;49136;47.416;19.402;2022-08-25T11:17:41;5.55;;;2.83;;
63050;SDS011;49136;47.416;19.402;2022-08-25T11:20:15;3.75;;;2.38;;
63050;SDS011;49136;47.416;19.402;2022-08-25T11:22:54;3.08;;;2.47;;
63050;SDS011;49136;47.416;19.402;2022-08-25T11:25:41;6.53;;;2.83;;
63050;SDS011;49136;47.416;19.402;2022-08-25T11:30:45;9.75;;;2.53;;
63050;SDS011;49136;47.416;19.402;2022-08-25T11:33:15;4.43;;;2.20;;
63050;SDS011;49136;47.416;19.402;2022-08-25T11:49:07;11.07;;;3.10;;
63050;SDS011;49136;47.416;19.402;2022-08-25T11:51:51;5.28;;;2.85;;
63050;SDS011;49136;47.416;19.402;2022-08-25T11:54:26;5.70;;;2.40;;
63050;SDS011;49136;47.416;19.402;2022-08-25T11:57:17;5.47;;;2.95;;
63050;SDS011;49136;47.416;19.402;2022-08-25T12:05:08;5.82;;;2.53;;
63050;SDS011;49136;47.416;19.402;2022-08-25T12:10:13;8.30;;;2.63;;
63050;SDS011;49136;47.416;19.402;2022-08-25T12:23:29;5.97;;;3.15;;
63050;SDS011;49136;47.416;19.402;2022-08-25T12:26:03;4.85;;;3.08;;
63050;SDS011;49136;47.416;19.402;2022-08-25T12:31:20;4.30;;;3.00;;
63050;SDS011;49136;47.416;19.402;2022-08-25T12:34:01;10.32;;;3.17;;
63050;SDS011;49136;47.416;19.402;2022-08-25T12:36:30;7.00;;;3.35;;
63050;SDS011;49136;47.416;19.402;2022-08-25T12:42:00;8.45;;;3.17;;
63050;SDS011;49136;47.416;19.402;2022-08-25T12:44:39;8.38;;;2.90;;
63050;SDS011;49136;47.416;19.402;2022-08-25T12:49:48;9.27;;;3.40;;
63050;SDS011;49136;47.416;19.402;2022-08-25T12:52:15;14.25;;;3.67;;
63050;SDS011;49136;47.416;19.402;2022-08-25T12:54:50;8.85;;;3.15;;
63050;SDS011;49136;47.416;19.402;2022-08-25T13:02:47;5.65;;;3.30;;
63050;SDS011;49136;47.416;19.402;2022-08-25T13:11:04;6.90;;;3.28;;
63050;SDS011;49136;47.416;19.402;2022-08-25T13:16:28;5.65;;;3.42;;
63050;SDS011;49136;47.416;19.402;2022-08-25T13:18:54;6.28;;;3.88;;
63050;SDS011;49136;47.416;19.402;2022-08-25T13:24:00;8.68;;;3.30;;
63050;SDS011;49136;47.416;19.402;2022-08-25T13:26:33;10.18;;;3.55;;
63050;SDS011;49136;47.416;19.402;2022-08-25T13:31:32;11.35;;;4.68;;
63050;SDS011;49136;47.416;19.402;2022-08-25T13:34:03;8.07;;;3.67;;
63050;SDS011;49136;47.416;19.402;2022-08-25T13:36:32;7.10;;;3.10;;
63050;SDS011;49136;47.416;19.402;2022-08-25T13:39:24;10.20;;;3.67;;
63050;SDS011;49136;47.416;19.402;2022-08-25T13:41:52;6.80;;;3.55;;
63050;SDS011;49136;47.416;19.402;2022-08-25T13:44:20;11.20;;;4.88;;
63050;SDS011;49136;47.416;19.402;2022-08-25T13:46:53;7.78;;;3.47;;
63050;SDS011;49136;47.416;19.402;2022-08-25T13:49:30;5.13;;;3.40;;
63050;SDS011;49136;47.416;19.402;2022-08-25T13:51:55;6.35;;;2.95;;
63050;SDS011;49136;47.416;19.402;2022-08-25T13:54:27;7.13;;;2.90;;
63050;SDS011;49136;47.416;19.402;2022-08-25T13:57:05;16.67;;;3.85;;
63050;SDS011;49136;47.416;19.402;2022-08-25T13:59:38;8.18;;;3.80;;
63050;SDS011;49136;47.416;19.402;2022-08-25T14:02:06;10.57;;;3.60;;
63050;SDS011;49136;47.416;19.402;2022-08-25T14:12:25;10.32;;;3.40;;
63050;SDS011;49136;47.416;19.402;2022-08-25T14:17:43;11.32;;;3.47;;
63050;SDS011;49136;47.416;19.402;2022-08-25T14:22:52;11.80;;;3.25;;
63050;SDS011;49136;47.416;19.402;2022-08-25T14:25:20;7.07;;;3.35;;
63050;SDS011;49136;47.416;19.402;2022-08-25T14:27:53;7.50;;;3.38;;
63050;SDS011;49136;47.416;19.402;2022-08-25T14:30:20;10.20;;;3.58;;
63050;SDS011;49136;47.416;19.402;2022-08-25T14:32:45;8.10;;;3.80;;
63050;SDS011;49136;47.416;19.402;2022-08-25T14:35:10;10.70;;;4.00;;
63050;SDS011;49136;47.416;19.402;2022-08-25T14:37:36;12.80;;;4.05;;
63050;SDS011;49136;47.416;19.402;2022-08-25T14:40:02;6.97;;;3.00;;
63050;SDS011;49136;47.416;19.402;2022-08-25T14:42:28;7.47;;;3.03;;
63050;SDS011;49136;47.416;19.402;2022-08-25T14:44:53;13.05;;;3.63;;
63050;SDS011;49136;47.416;19.402;2022-08-25T14:47:19;7.63;;;3.05;;
63050;SDS011;49136;47.416;19.402;2022-08-25T14:49:45;8.20;;;3.33;;
63050;SDS011;49136;47.416;19.402;2022-08-25T14:52:17;9.30;;;3.40;;
63050;SDS011;49136;47.416;19.402;2022-08-25T14:54:45;7.70;;;3.45;;
63050;SDS011;49136;47.416;19.402;2022-08-25T14:57:11;9.50;;;3.20;;
63050;SDS011;49136;47.416;19.402;2022-08-25T14:59:37;7.25;;;3.58;;
63050;SDS011;49136;47.416;19.402;2022-08-25T15:02:03;8.15;;;3.47;;
63050;SDS011;49136;47.416;19.402;2022-08-25T15:04:32;8.73;;;3.42;;
63050;SDS011;49136;47.416;19.402;2022-08-25T15:06:59;10.93;;;4.50;;
63050;SDS011;49136;47.416;19.402;2022-08-25T15:09:25;7.18;;;3.05;;
63050;SDS011;49136;47.416;19.402;2022-08-25T15:11:52;6.20;;;3.50;;
63050;SDS011;49136;47.416;19.402;2022-08-25T15:14:20;10.07;;;3.08;;
63050;SDS011;49136;47.416;19.402;2022-08-25T15:16:49;11.60;;;3.60;;
63050;SDS011;49136;47.416;19.402;2022-08-25T15:21:45;7.30;;;3.40;;
63050;SDS011;49136;47.416;19.402;2022-08-25T15:24:12;12.13;;;3.80;;
63050;SDS011;49136;47.416;19.402;2022-08-25T15:26:43;7.22;;;3.33;;
63050;SDS011;49136;47.416;19.402;2022-08-25T15:29:14;9.95;;;3.55;;
63050;SDS011;49136;47.416;19.402;2022-08-25T15:31:40;11.32;;;3.30;;
63050;SDS011;49136;47.416;19.402;2022-08-25T15:34:06;7.47;;;3.58;;
63050;SDS011;49136;47.416;19.402;2022-08-25T15:36:33;12.82;;;3.60;;
63050;SDS011;49136;47.416;19.402;2022-08-25T15:38:58;12.20;;;3.80;;
63050;SDS011;49136;47.416;19.402;2022-08-25T15:41:24;10.13;;;3.58;;
63050;SDS011;49136;47.416;19.402;2022-08-25T15:43:49;7.90;;;3.28;;
63050;SDS011;49136;47.416;19.402;2022-08-25T15:46:18;8.38;;;3.58;;
63050;SDS011;49136;47.416;19.402;2022-08-25T15:48:45;13.00;;;3.80;;
63050;SDS011;49136;47.416;19.402;2022-08-25T15:51:11;10.23;;;3.70;;
63050;SDS011;49136;47.416;19.402;2022-08-25T15:53:37;9.10;;;3.38;;
63050;SDS011;49136;47.416;19.402;2022-08-25T15:56:03;5.65;;;3.67;;
63050;SDS011;49136;47.416;19.402;2022-08-25T15:58:29;8.25;;;3.80;;
63050;SDS011;49136;47.416;19.402;2022-08-25T16:00:55;8.77;;;3.75;;
63050;SDS011;49136;47.416;19.402;2022-08-25T16:03:20;18.30;;;4.35;;
63050;SDS011;49136;47.416;19.402;2022-08-25T16:05:45;12.98;;;3.72;;
63050;SDS011;49136;47.416;19.402;2022-08-25T16:08:11;8.77;;;3.70;;
63050;SDS011;49136;47.416;19.402;2022-08-25T16:10:38;13.05;;;3.72;;
63050;SDS011;49136;47.416;19.402;2022-08-25T16:13:06;6.95;;;3.50;;
63050;SDS011;49136;47.416;19.402;2022-08-25T16:15:32;8.07;;;3.50;;
63050;SDS011;49136;47.416;19.402;2022-08-25T16:17:59;10.68;;;4.25;;
63050;SDS011;49136;47.416;19.402;2022-08-25T16:20:27;11.15;;;3.28;;
63050;SDS011;49136;47.416;19.402;2022-08-25T16:22:54;9.32;;;3.92;;
63050;SDS011;49136;47.416;19.402;2022-08-25T16:25:20;10.15;;;3.70;;
63050;SDS011;49136;47.416;19.402;2022-08-25T16:27:45;11.52;;;3.30;;
63050;SDS011;49136;47.416;19.402;2022-08-25T16:30:11;11.07;;;3.45;;
63050;SDS011;49136;47.416;19.402;2022-08-25T16:32:37;14.30;;;4.07;;
63050;SDS011;49136;47.416;19.402;2022-08-25T16:35:04;13.25;;;3.10;;
63050;SDS011;49136;47.416;19.402;2022-08-25T16:37:33;10.43;;;4.20;;
63050;SDS011;49136;47.416;19.402;2022-08-25T16:39:59;8.50;;;3.53;;
63050;SDS011;49136;47.416;19.402;2022-08-25T16:42:25;10.13;;;3.65;;
63050;SDS011;49136;47.416;19.402;2022-08-25T16:44:51;10.02;;;3.40;;
63050;SDS011;49136;47.416;19.402;2022-08-25T16:47:17;13.50;;;3.97;;
63050;SDS011;49136;47.416;19.402;2022-08-25T16:49:43;10.60;;;3.58;;
63050;SDS011;49136;47.416;19.402;2022-08-25T16:52:09;12.02;;;3.38;;